Ana Sayfa
METAR-TAF:

METAR-TAF

Havaalanları :

Las Vegas, Nevada, Amerika Birleşik Devletleri

McCarran Uluslararası Havalimanı

Enlem: 36-04-44N, Boylam: 115-09-19W, yükseklik: 663 m

Güncel hava durumu gözlemi

Rapor saat 18:56 UTC de 1 saat ve 0 dakika önce yapıldı.
Sakin rüzgar
Sıcaklık 16°C
Nem 39%
Basınç 1026 hPa
Görüş mesafesi: 16.1 km
25000 ft yükseklikte parçalı bulutlu

METAR: KLAS 171856Z 00000KT 10SM SCT250 16/02 A3031 RMK AO2 SLP258 T01560017

Saat: 11:56 (19:56 UTC)

Tahmin

Rapor saat 17:20 UTC de 2 saat ve 36 dakika önce yapıldı.
Ayın 17'si saat 18 UTC'den ayın 18'si saat 24 UTC'ye kadar geçerli Tahmin
Rüzgar değişken yönden 4 kt
Görüş mesafesi: 10 km
25000 ft yükseklikte parçalı bulutlu
Ayın 18'si saat 0200 UTC'den
Rüzgar güney/güneybatıdan 5 kt
Görüş mesafesi: 10 km
25000 ft yükseklikte parçalı bulutlu

TAF: KLAS 171720Z 1718/1824 VRB04KT P6SM SCT250 FM180200 21005KT P6SM SCT250

4.000'den fazla havaalanı için hava durumu gözlemleri ve tahminleri (METAR ve TAF raporları).

Kullanılabilir istasyonlar harita üzerinde sarı ve kırmızı noktalarla gösterilir.

İstasyonun adını görmek için fareyi noktanın üzerinde gezdirin.

Sonrasında hava gözlem ve tahminlerini görmek için tıklayın.

Haritayı değiştirmek için: yaklaştırmak için siyah artı işaretli yeşil düğmeye ve uzaklaştırmak için de eksi işaretli düğmeye hızla tıklayın; bitişik haritalar için yeşil okları kullanın.


METAR-TAF: